logo
Search for airport 
image banner adimage banner adimage banner ad
image banner ad

WPSM - Same

Located in , Timor-Leste

ICAO - , IATA -

Data provided by Airmate  

General information

Coordinates: S9°0'2" E125°41'2"
Elevation is 1100 feet MSL.
 
View others Airports in Cova Lima

Operational data

Special qualification required
Current time UTC:
Current local time:
TAF: TAF WPDL 062231Z 0700/0712 31012KT 9999 SCT030 PROB30 TEMPO 0704/0712 VRB20G35KT 1000 TSRA BKN010 SCT030CB
View NOTAMs / SUP AIP / TFR affecting this airport [VIEW]
Communications frequencies: [VIEW]

Runways:

RWY identifierQFULength (ft)Width (ft)SurfaceLDA (ft)
18269066UNK
36269066UNK

Airport contact information

Address: Timor-Leste

Satellite view of WPSM